sensor_id;sensor_type;location;lat;lon;timestamp;pressure;altitude;pressure_sealevel;temperature;humidity
10806;BME280;5455;53.224;6.000;2023-04-25T00:01:58;100931.09;;;6.91;100.00
10806;BME280;5455;53.224;6.000;2023-04-25T00:04:27;100939.19;;;6.88;100.00
10806;BME280;5455;53.224;6.000;2023-04-25T00:06:55;100944.53;;;6.84;100.00
10806;BME280;5455;53.224;6.000;2023-04-25T00:09:22;100950.19;;;6.79;100.00
10806;BME280;5455;53.224;6.000;2023-04-25T00:11:49;100942.75;;;6.80;100.00
10806;BME280;5455;53.224;6.000;2023-04-25T00:14:16;100948.44;;;6.75;100.00
10806;BME280;5455;53.224;6.000;2023-04-25T00:16:43;100955.53;;;6.76;100.00
10806;BME280;5455;53.224;6.000;2023-04-25T00:19:11;100948.59;;;6.78;100.00
10806;BME280;5455;53.224;6.000;2023-04-25T00:21:38;100941.63;;;6.81;100.00
10806;BME280;5455;53.224;6.000;2023-04-25T00:24:07;100950.31;;;6.83;100.00
10806;BME280;5455;53.224;6.000;2023-04-25T00:26:35;100946.25;;;6.89;100.00
10806;BME280;5455;53.224;6.000;2023-04-25T00:29:02;100950.25;;;6.91;100.00
10806;BME280;5455;53.224;6.000;2023-04-25T00:31:30;100953.34;;;6.90;100.00
10806;BME280;5455;53.224;6.000;2023-04-25T00:33:57;100950.63;;;6.90;100.00
10806;BME280;5455;53.224;6.000;2023-04-25T00:36:24;100958.78;;;6.98;100.00
10806;BME280;5455;53.224;6.000;2023-04-25T00:38:54;100947.00;;;6.98;100.00
10806;BME280;5455;53.224;6.000;2023-04-25T00:41:25;100955.22;;;6.98;100.00
10806;BME280;5455;53.224;6.000;2023-04-25T00:43:54;100945.22;;;7.02;100.00
10806;BME280;5455;53.224;6.000;2023-04-25T00:46:21;100946.47;;;7.04;100.00
10806;BME280;5455;53.224;6.000;2023-04-25T00:48:48;100951.16;;;7.04;100.00
10806;BME280;5455;53.224;6.000;2023-04-25T00:51:20;100950.69;;;7.02;100.00
10806;BME280;5455;53.224;6.000;2023-04-25T00:53:49;100952.44;;;7.06;100.00
10806;BME280;5455;53.224;6.000;2023-04-25T00:56:17;100955.31;;;7.10;100.00
10806;BME280;5455;53.224;6.000;2023-04-25T00:58:45;100960.47;;;7.11;100.00
10806;BME280;5455;53.224;6.000;2023-04-25T01:01:12;100961.59;;;7.10;100.00
10806;BME280;5455;53.224;6.000;2023-04-25T01:03:40;100945.16;;;7.10;100.00
10806;BME280;5455;53.224;6.000;2023-04-25T01:06:09;100956.25;;;7.14;100.00
10806;BME280;5455;53.224;6.000;2023-04-25T01:08:39;100963.00;;;7.16;100.00
10806;BME280;5455;53.224;6.000;2023-04-25T01:11:07;100967.69;;;7.16;100.00
10806;BME280;5455;53.224;6.000;2023-04-25T01:13:34;100959.47;;;7.16;100.00
10806;BME280;5455;53.224;6.000;2023-04-25T01:16:02;100966.56;;;7.17;100.00
10806;BME280;5455;53.224;6.000;2023-04-25T01:18:32;100967.38;;;7.17;100.00
10806;BME280;5455;53.224;6.000;2023-04-25T01:21:09;100967.47;;;7.21;100.00
10806;BME280;5455;53.224;6.000;2023-04-25T01:23:40;100968.28;;;7.21;100.00
10806;BME280;5455;53.224;6.000;2023-04-25T01:26:09;100979.41;;;7.25;100.00
10806;BME280;5455;53.224;6.000;2023-04-25T01:28:38;100989.09;;;7.22;100.00
10806;BME280;5455;53.224;6.000;2023-04-25T01:31:11;100998.97;;;7.15;100.00
10806;BME280;5455;53.224;6.000;2023-04-25T01:33:39;100985.47;;;7.10;100.00
10806;BME280;5455;53.224;6.000;2023-04-25T01:36:06;100985.69;;;7.05;100.00
10806;BME280;5455;53.224;6.000;2023-04-25T01:38:34;100991.00;;;7.01;100.00
10806;BME280;5455;53.224;6.000;2023-04-25T01:41:02;100988.31;;;6.93;100.00
10806;BME280;5455;53.224;6.000;2023-04-25T01:43:29;100993.19;;;6.87;100.00
10806;BME280;5455;53.224;6.000;2023-04-25T01:45:56;100993.34;;;6.82;100.00
10806;BME280;5455;53.224;6.000;2023-04-25T01:48:24;100996.91;;;6.83;100.00
10806;BME280;5455;53.224;6.000;2023-04-25T01:50:51;100997.91;;;6.78;100.00
10806;BME280;5455;53.224;6.000;2023-04-25T01:53:18;101000.97;;;6.77;100.00
10806;BME280;5455;53.224;6.000;2023-04-25T01:55:45;100999.84;;;6.78;100.00
10806;BME280;5455;53.224;6.000;2023-04-25T01:58:15;101004.97;;;6.79;100.00
10806;BME280;5455;53.224;6.000;2023-04-25T02:01:01;101008.06;;;6.78;100.00
10806;BME280;5455;53.224;6.000;2023-04-25T02:03:36;101004.19;;;6.79;100.00
10806;BME280;5455;53.224;6.000;2023-04-25T02:06:07;101005.19;;;6.74;100.00
10806;BME280;5455;53.224;6.000;2023-04-25T02:08:37;101007.09;;;6.74;100.00
10806;BME280;5455;53.224;6.000;2023-04-25T02:11:04;101008.53;;;6.80;100.00
10806;BME280;5455;53.224;6.000;2023-04-25T02:13:39;101011.75;;;6.82;100.00
10806;BME280;5455;53.224;6.000;2023-04-25T02:16:23;101019.19;;;6.81;100.00
10806;BME280;5455;53.224;6.000;2023-04-25T02:18:52;101037.09;;;6.79;100.00
10806;BME280;5455;53.224;6.000;2023-04-25T02:21:19;101035.66;;;6.64;100.00
10806;BME280;5455;53.224;6.000;2023-04-25T02:23:46;101035.09;;;6.41;100.00
10806;BME280;5455;53.224;6.000;2023-04-25T02:26:15;101021.16;;;6.17;100.00
10806;BME280;5455;53.224;6.000;2023-04-25T02:28:42;101034.03;;;6.08;100.00
10806;BME280;5455;53.224;6.000;2023-04-25T02:31:09;101031.50;;;6.03;100.00
10806;BME280;5455;53.224;6.000;2023-04-25T02:33:36;101019.41;;;5.95;100.00
10806;BME280;5455;53.224;6.000;2023-04-25T02:36:05;101020.22;;;5.96;100.00
10806;BME280;5455;53.224;6.000;2023-04-25T02:38:32;101016.19;;;6.02;100.00
10806;BME280;5455;53.224;6.000;2023-04-25T02:40:59;101020.53;;;6.03;100.00
10806;BME280;5455;53.224;6.000;2023-04-25T02:43:26;101020.53;;;6.03;100.00
10806;BME280;5455;53.224;6.000;2023-04-25T02:45:54;101025.38;;;6.06;100.00
10806;BME280;5455;53.224;6.000;2023-04-25T02:48:21;101012.16;;;6.08;100.00
10806;BME280;5455;53.224;6.000;2023-04-25T02:50:48;101014.88;;;6.08;100.00
10806;BME280;5455;53.224;6.000;2023-04-25T02:53:14;101019.72;;;6.11;100.00
10806;BME280;5455;53.224;6.000;2023-04-25T02:55:47;101017.59;;;6.17;100.00
10806;BME280;5455;53.224;6.000;2023-04-25T02:58:14;101019.22;;;6.18;100.00
10806;BME280;5455;53.224;6.000;2023-04-25T03:00:48;101031.44;;;6.20;100.00
10806;BME280;5455;53.224;6.000;2023-04-25T03:03:16;101021.50;;;6.16;100.00
10806;BME280;5455;53.224;6.000;2023-04-25T03:05:49;101015.38;;;6.19;100.00
10806;BME280;5455;53.224;6.000;2023-04-25T03:08:22;101025.00;;;6.16;100.00
10806;BME280;5455;53.224;6.000;2023-04-25T03:10:49;101013.09;;;6.21;100.00
10806;BME280;5455;53.224;6.000;2023-04-25T03:13:18;101015.84;;;6.21;100.00
10806;BME280;5455;53.224;6.000;2023-04-25T03:15:45;101011.78;;;6.27;100.00
10806;BME280;5455;53.224;6.000;2023-04-25T03:18:12;101018.06;;;6.27;100.00
10806;BME280;5455;53.224;6.000;2023-04-25T03:20:39;101016.47;;;6.26;100.00
10806;BME280;5455;53.224;6.000;2023-04-25T03:23:08;101018.38;;;6.26;100.00
10806;BME280;5455;53.224;6.000;2023-04-25T03:25:36;101028.03;;;6.32;100.00
10806;BME280;5455;53.224;6.000;2023-04-25T03:28:03;101020.78;;;6.36;100.00
10806;BME280;5455;53.224;6.000;2023-04-25T03:30:31;101025.16;;;6.37;100.00
10806;BME280;5455;53.224;6.000;2023-04-25T03:32:58;101031.72;;;6.44;100.00
10806;BME280;5455;53.224;6.000;2023-04-25T03:35:26;101040.75;;;6.45;100.00
10806;BME280;5455;53.224;6.000;2023-04-25T03:37:53;101042.81;;;6.48;100.00
10806;BME280;5455;53.224;6.000;2023-04-25T03:40:26;101037.38;;;6.39;100.00
10806;BME280;5455;53.224;6.000;2023-04-25T03:43:07;101047.41;;;6.18;100.00
10806;BME280;5455;53.224;6.000;2023-04-25T03:45:35;101040.16;;;6.05;100.00
10806;BME280;5455;53.224;6.000;2023-04-25T03:48:02;101046.59;;;5.92;100.00
10806;BME280;5455;53.224;6.000;2023-04-25T03:50:30;101046.13;;;5.81;100.00
10806;BME280;5455;53.224;6.000;2023-04-25T03:52:57;101040.81;;;5.76;100.00
10806;BME280;5455;53.224;6.000;2023-04-25T03:55:27;101042.91;;;5.71;100.00
10806;BME280;5455;53.224;6.000;2023-04-25T03:57:54;101046.28;;;5.68;100.00
10806;BME280;5455;53.224;6.000;2023-04-25T04:00:22;101042.22;;;5.65;100.00
10806;BME280;5455;53.224;6.000;2023-04-25T04:02:51;101048.03;;;5.64;100.00
10806;BME280;5455;53.224;6.000;2023-04-25T04:05:18;101051.25;;;5.66;100.00
10806;BME280;5455;53.224;6.000;2023-04-25T04:07:54;101058.97;;;5.64;100.00
10806;BME280;5455;53.224;6.000;2023-04-25T04:10:22;101058.50;;;5.62;100.00
10806;BME280;5455;53.224;6.000;2023-04-25T04:12:49;101062.19;;;5.57;100.00
10806;BME280;5455;53.224;6.000;2023-04-25T04:15:16;101069.41;;;5.53;100.00
10806;BME280;5455;53.224;6.000;2023-04-25T04:17:45;101060.72;;;5.51;100.00
10806;BME280;5455;53.224;6.000;2023-04-25T04:20:13;101075.38;;;5.46;100.00
10806;BME280;5455;53.224;6.000;2023-04-25T04:22:40;101071.84;;;5.46;100.00
10806;BME280;5455;53.224;6.000;2023-04-25T04:25:11;101078.94;;;5.55;100.00
10806;BME280;5455;53.224;6.000;2023-04-25T04:28:07;101078.59;;;5.66;100.00
10806;BME280;5455;53.224;6.000;2023-04-25T04:30:39;101077.03;;;5.73;100.00
10806;BME280;5455;53.224;6.000;2023-04-25T04:33:08;101085.41;;;5.77;100.00
10806;BME280;5455;53.224;6.000;2023-04-25T04:35:36;101079.59;;;5.78;100.00
10806;BME280;5455;53.224;6.000;2023-04-25T04:38:03;101093.94;;;5.92;100.00
10806;BME280;5455;53.224;6.000;2023-04-25T04:40:33;101092.19;;;5.96;100.00
10806;BME280;5455;53.224;6.000;2023-04-25T04:43:11;101091.88;;;6.06;100.00
10806;BME280;5455;53.224;6.000;2023-04-25T04:46:02;101101.19;;;6.23;100.00
10806;BME280;5455;53.224;6.000;2023-04-25T04:48:49;101104.25;;;6.30;100.00
10806;BME280;5455;53.224;6.000;2023-04-25T04:51:37;101107.44;;;6.40;100.00
10806;BME280;5455;53.224;6.000;2023-04-25T04:54:14;101116.44;;;6.49;100.00
10806;BME280;5455;53.224;6.000;2023-04-25T04:57:07;101114.03;;;6.56;100.00
10806;BME280;5455;53.224;6.000;2023-04-25T04:59:50;101113.84;;;6.61;100.00
10806;BME280;5455;53.224;6.000;2023-04-25T05:02:38;101121.09;;;6.66;100.00
10806;BME280;5455;53.224;6.000;2023-04-25T05:05:32;101120.59;;;6.73;100.00
10806;BME280;5455;53.224;6.000;2023-04-25T05:08:11;101118.97;;;6.72;100.00
10806;BME280;5455;53.224;6.000;2023-04-25T05:11:04;101130.41;;;6.74;100.00
10806;BME280;5455;53.224;6.000;2023-04-25T05:13:49;101130.59;;;6.69;100.00
10806;BME280;5455;53.224;6.000;2023-04-25T05:16:34;101132.53;;;6.59;100.00
10806;BME280;5455;53.224;6.000;2023-04-25T05:19:20;101131.91;;;6.54;100.00
10806;BME280;5455;53.224;6.000;2023-04-25T05:21:54;101138.50;;;6.53;100.00
10806;BME280;5455;53.224;6.000;2023-04-25T05:24:30;101137.53;;;6.49;100.00
10806;BME280;5455;53.224;6.000;2023-04-25T05:27:17;101139.97;;;6.50;100.00
10806;BME280;5455;53.224;6.000;2023-04-25T05:30:06;101148.19;;;6.50;100.00
10806;BME280;5455;53.224;6.000;2023-04-25T05:32:54;101151.22;;;6.66;100.00
10806;BME280;5455;53.224;6.000;2023-04-25T05:35:21;101141.69;;;6.81;100.00
10806;BME280;5455;53.224;6.000;2023-04-25T05:37:49;101152.00;;;6.84;100.00
10806;BME280;5455;53.224;6.000;2023-04-25T05:40:19;101165.84;;;6.87;100.00
10806;BME280;5455;53.224;6.000;2023-04-25T05:42:56;101162.16;;;6.83;100.00
10806;BME280;5455;53.224;6.000;2023-04-25T05:45:42;101173.00;;;6.54;100.00
10806;BME280;5455;53.224;6.000;2023-04-25T05:48:28;101177.84;;;6.31;100.00
10806;BME280;5455;53.224;6.000;2023-04-25T05:51:18;101169.16;;;6.21;100.00
10806;BME280;5455;53.224;6.000;2023-04-25T05:54:11;101183.47;;;6.18;100.00
10806;BME280;5455;53.224;6.000;2023-04-25T05:56:39;101181.84;;;6.08;100.00
10806;BME280;5455;53.224;6.000;2023-04-25T05:59:06;101182.84;;;6.12;100.00
10806;BME280;5455;53.224;6.000;2023-04-25T06:01:33;101176.38;;;6.25;100.00
10806;BME280;5455;53.224;6.000;2023-04-25T06:04:00;101184.47;;;6.30;100.00
10806;BME280;5455;53.224;6.000;2023-04-25T06:06:28;101190.56;;;6.44;100.00
10806;BME280;5455;53.224;6.000;2023-04-25T06:08:58;101187.34;;;6.59;100.00
10806;BME280;5455;53.224;6.000;2023-04-25T06:11:25;101192.63;;;6.64;100.00
10806;BME280;5455;53.224;6.000;2023-04-25T06:13:52;101191.31;;;6.79;100.00
10806;BME280;5455;53.224;6.000;2023-04-25T06:16:19;101186.47;;;6.93;100.00
10806;BME280;5455;53.224;6.000;2023-04-25T06:18:46;101194.22;;;7.00;100.00
10806;BME280;5455;53.224;6.000;2023-04-25T06:21:14;101185.13;;;7.16;100.00
10806;BME280;5455;53.224;6.000;2023-04-25T06:23:41;101192.88;;;7.14;100.00
10806;BME280;5455;53.224;6.000;2023-04-25T06:26:11;101197.47;;;7.31;100.00
10806;BME280;5455;53.224;6.000;2023-04-25T06:28:41;101199.38;;;7.39;100.00
10806;BME280;5455;53.224;6.000;2023-04-25T06:31:08;101206.47;;;7.40;100.00
10806;BME280;5455;53.224;6.000;2023-04-25T06:33:35;101201.34;;;7.30;100.00
10806;BME280;5455;53.224;6.000;2023-04-25T06:36:03;101204.75;;;7.27;100.00
10806;BME280;5455;53.224;6.000;2023-04-25T06:38:31;101210.56;;;7.26;100.00
10806;BME280;5455;53.224;6.000;2023-04-25T06:40:58;101207.00;;;7.34;100.00
10806;BME280;5455;53.224;6.000;2023-04-25T06:43:29;101213.56;;;7.50;100.00
10806;BME280;5455;53.224;6.000;2023-04-25T06:46:23;101229.53;;;7.48;100.00
10806;BME280;5455;53.224;6.000;2023-04-25T06:48:50;101252.38;;;7.22;100.00
10806;BME280;5455;53.224;6.000;2023-04-25T06:51:19;101242.59;;;6.96;100.00
10806;BME280;5455;53.224;6.000;2023-04-25T06:53:49;101241.13;;;6.90;100.00
10806;BME280;5455;53.224;6.000;2023-04-25T06:56:25;101261.13;;;6.64;100.00
10806;BME280;5455;53.224;6.000;2023-04-25T06:59:00;101243.59;;;6.48;100.00
10806;BME280;5455;53.224;6.000;2023-04-25T07:01:32;101233.28;;;6.45;100.00
10806;BME280;5455;53.224;6.000;2023-04-25T07:04:03;101229.06;;;6.74;100.00
10806;BME280;5455;53.224;6.000;2023-04-25T07:06:32;101242.72;;;7.08;100.00
10806;BME280;5455;53.224;6.000;2023-04-25T07:08:59;101232.66;;;7.29;100.00
10806;BME280;5455;53.224;6.000;2023-04-25T07:11:27;101240.84;;;7.46;100.00
10806;BME280;5455;53.224;6.000;2023-04-25T07:13:55;101233.56;;;7.50;100.00
10806;BME280;5455;53.224;6.000;2023-04-25T07:16:22;101240.94;;;7.58;100.00
10806;BME280;5455;53.224;6.000;2023-04-25T07:18:50;101252.88;;;7.62;100.00
10806;BME280;5455;53.224;6.000;2023-04-25T07:21:18;101252.22;;;7.65;100.00
10806;BME280;5455;53.224;6.000;2023-04-25T07:23:46;101252.50;;;7.35;100.00
10806;BME280;5455;53.224;6.000;2023-04-25T07:26:17;101262.38;;;7.10;100.00
10806;BME280;5455;53.224;6.000;2023-04-25T07:29:04;101249.31;;;7.07;100.00
10806;BME280;5455;53.224;6.000;2023-04-25T07:31:31;101250.28;;;7.19;100.00
10806;BME280;5455;53.224;6.000;2023-04-25T07:33:58;101263.16;;;7.28;100.00
10806;BME280;5455;53.224;6.000;2023-04-25T07:36:28;101263.28;;;7.40;100.00
10806;BME280;5455;53.224;6.000;2023-04-25T07:38:54;101252.72;;;7.59;100.00
10806;BME280;5455;53.224;6.000;2023-04-25T07:41:22;101250.91;;;7.71;100.00
10806;BME280;5455;53.224;6.000;2023-04-25T07:43:49;101256.72;;;7.99;100.00
10806;BME280;5455;53.224;6.000;2023-04-25T07:46:16;101260.81;;;8.22;100.00
10806;BME280;5455;53.224;6.000;2023-04-25T07:48:43;101265.25;;;8.36;100.00
10806;BME280;5455;53.224;6.000;2023-04-25T07:51:10;101269.28;;;8.79;100.00
10806;BME280;5455;53.224;6.000;2023-04-25T07:53:39;101276.69;;;9.32;100.00
10806;BME280;5455;53.224;6.000;2023-04-25T07:56:11;101279.19;;;9.58;100.00
10806;BME280;5455;53.224;6.000;2023-04-25T07:58:41;101298.28;;;9.43;100.00
10806;BME280;5455;53.224;6.000;2023-04-25T08:01:11;101303.53;;;9.03;100.00
10806;BME280;5455;53.224;6.000;2023-04-25T08:03:38;101302.16;;;8.55;100.00
10806;BME280;5455;53.224;6.000;2023-04-25T08:06:14;101309.53;;;8.05;100.00
10806;BME280;5455;53.224;6.000;2023-04-25T08:08:52;101314.78;;;8.18;100.00
10806;BME280;5455;53.224;6.000;2023-04-25T08:11:23;101308.75;;;8.34;100.00
10806;BME280;5455;53.224;6.000;2023-04-25T08:13:50;101309.22;;;8.27;100.00
10806;BME280;5455;53.224;6.000;2023-04-25T08:16:17;101321.53;;;7.92;100.00
10806;BME280;5455;53.224;6.000;2023-04-25T08:18:45;101306.53;;;7.89;100.00
10806;BME280;5455;53.224;6.000;2023-04-25T08:21:12;101319.81;;;8.16;100.00
10806;BME280;5455;53.224;6.000;2023-04-25T08:23:40;101310.53;;;8.59;100.00
10806;BME280;5455;53.224;6.000;2023-04-25T08:26:11;101322.47;;;8.83;100.00
10806;BME280;5455;53.224;6.000;2023-04-25T08:28:41;101333.94;;;8.85;99.83
10806;BME280;5455;53.224;6.000;2023-04-25T08:31:08;101322.50;;;8.96;100.00
10806;BME280;5455;53.224;6.000;2023-04-25T08:33:46;101322.34;;;9.33;97.68
10806;BME280;5455;53.224;6.000;2023-04-25T08:36:36;101322.81;;;10.05;97.86
10806;BME280;5455;53.224;6.000;2023-04-25T08:39:38;101335.63;;;10.21;88.25
10806;BME280;5455;53.224;6.000;2023-04-25T08:42:27;101344.31;;;9.54;91.44
10806;BME280;5455;53.224;6.000;2023-04-25T08:44:56;101343.13;;;8.90;97.69
10806;BME280;5455;53.224;6.000;2023-04-25T08:47:29;101338.00;;;8.38;100.00
10806;BME280;5455;53.224;6.000;2023-04-25T08:49:58;101352.19;;;8.40;100.00
10806;BME280;5455;53.224;6.000;2023-04-25T08:52:28;101345.06;;;8.39;100.00
10806;BME280;5455;53.224;6.000;2023-04-25T08:54:58;101344.63;;;8.37;100.00
10806;BME280;5455;53.224;6.000;2023-04-25T08:57:28;101348.47;;;8.36;100.00
10806;BME280;5455;53.224;6.000;2023-04-25T08:59:56;101353.44;;;8.13;100.00
10806;BME280;5455;53.224;6.000;2023-04-25T09:02:24;101364.56;;;8.17;100.00
10806;BME280;5455;53.224;6.000;2023-04-25T09:04:53;101381.66;;;8.31;100.00
10806;BME280;5455;53.224;6.000;2023-04-25T09:07:24;101365.91;;;8.69;100.00
10806;BME280;5455;53.224;6.000;2023-04-25T09:09:53;101371.41;;;9.11;100.00
10806;BME280;5455;53.224;6.000;2023-04-25T09:12:22;101381.56;;;8.98;90.41
10806;BME280;5455;53.224;6.000;2023-04-25T09:15:21;101371.34;;;8.99;87.96
10806;BME280;5455;53.224;6.000;2023-04-25T09:18:06;101381.72;;;9.34;91.49
10806;BME280;5455;53.224;6.000;2023-04-25T09:20:42;101396.84;;;9.49;89.41
10806;BME280;5455;53.224;6.000;2023-04-25T09:23:14;101404.97;;;9.04;89.26
10806;BME280;5455;53.224;6.000;2023-04-25T09:25:42;101403.44;;;8.65;87.53
10806;BME280;5455;53.224;6.000;2023-04-25T09:28:10;101407.91;;;8.49;87.02
10806;BME280;5455;53.224;6.000;2023-04-25T09:30:37;101406.78;;;8.79;87.38
10806;BME280;5455;53.224;6.000;2023-04-25T09:33:30;101421.56;;;9.37;81.03
10806;BME280;5455;53.224;6.000;2023-04-25T09:36:09;101414.25;;;9.53;78.90
10806;BME280;5455;53.224;6.000;2023-04-25T09:38:59;101419.44;;;9.55;81.09
10806;BME280;5455;53.224;6.000;2023-04-25T09:41:30;101414.25;;;10.19;83.22
10806;BME280;5455;53.224;6.000;2023-04-25T09:44:01;101421.53;;;10.47;83.61
10806;BME280;5455;53.224;6.000;2023-04-25T09:46:35;101421.69;;;10.06;85.43
10806;BME280;5455;53.224;6.000;2023-04-25T09:49:14;101423.28;;;9.74;94.02
10806;BME280;5455;53.224;6.000;2023-04-25T09:52:19;101418.38;;;9.47;100.00
10806;BME280;5455;53.224;6.000;2023-04-25T09:55:11;101420.88;;;9.19;100.00
10806;BME280;5455;53.224;6.000;2023-04-25T09:57:38;101430.00;;;9.32;100.00
10806;BME280;5455;53.224;6.000;2023-04-25T10:00:07;101437.78;;;9.51;100.00
10806;BME280;5455;53.224;6.000;2023-04-25T10:02:46;101445.56;;;9.49;100.00
10806;BME280;5455;53.224;6.000;2023-04-25T10:05:34;101438.16;;;9.40;100.00
10806;BME280;5455;53.224;6.000;2023-04-25T10:08:03;101443.09;;;9.35;100.00
10806;BME280;5455;53.224;6.000;2023-04-25T10:10:33;101451.13;;;9.19;100.00
10806;BME280;5455;53.224;6.000;2023-04-25T10:13:04;101445.94;;;8.76;100.00
10806;BME280;5455;53.224;6.000;2023-04-25T10:15:35;101450.72;;;8.50;100.00
10806;BME280;5455;53.224;6.000;2023-04-25T10:18:06;101446.63;;;8.18;100.00
10806;BME280;5455;53.224;6.000;2023-04-25T10:20:33;101447.63;;;8.05;100.00
10806;BME280;5455;53.224;6.000;2023-04-25T10:23:11;101457.00;;;8.13;100.00
10806;BME280;5455;53.224;6.000;2023-04-25T10:25:40;101456.72;;;8.52;100.00
10806;BME280;5455;53.224;6.000;2023-04-25T10:28:08;101454.22;;;8.97;100.00
10806;BME280;5455;53.224;6.000;2023-04-25T10:30:35;101453.47;;;9.09;100.00
10806;BME280;5455;53.224;6.000;2023-04-25T10:33:16;101456.22;;;9.09;95.67
10806;BME280;5455;53.224;6.000;2023-04-25T10:35:45;101465.16;;;9.06;90.56
10806;BME280;5455;53.224;6.000;2023-04-25T10:38:14;101470.81;;;9.30;88.73
10806;BME280;5455;53.224;6.000;2023-04-25T10:40:41;101467.31;;;9.41;89.53
10806;BME280;5455;53.224;6.000;2023-04-25T10:46:00;101466.66;;;9.24;89.03
10806;BME280;5455;53.224;6.000;2023-04-25T10:48:28;101468.81;;;9.39;87.85
10806;BME280;5455;53.224;6.000;2023-04-25T10:51:11;101475.22;;;10.17;89.01
10806;BME280;5455;53.224;6.000;2023-04-25T10:53:38;101489.88;;;9.56;91.13
10806;BME280;5455;53.224;6.000;2023-04-25T10:56:16;101484.63;;;9.21;93.19
10806;BME280;5455;53.224;6.000;2023-04-25T10:58:44;101481.38;;;8.99;97.86
10806;BME280;5455;53.224;6.000;2023-04-25T11:01:14;101482.19;;;8.99;99.78
10806;BME280;5455;53.224;6.000;2023-04-25T11:03:42;101483.03;;;8.91;100.00
10806;BME280;5455;53.224;6.000;2023-04-25T11:06:23;101484.47;;;8.97;99.67
10806;BME280;5455;53.224;6.000;2023-04-25T11:08:54;101486.91;;;8.90;98.54
10806;BME280;5455;53.224;6.000;2023-04-25T11:11:21;101493.34;;;9.23;100.00
10806;BME280;5455;53.224;6.000;2023-04-25T11:13:48;101484.44;;;9.47;97.60
10806;BME280;5455;53.224;6.000;2023-04-25T11:16:17;101495.44;;;10.21;99.04
10806;BME280;5455;53.224;6.000;2023-04-25T11:18:57;101525.72;;;9.68;87.26
10806;BME280;5455;53.224;6.000;2023-04-25T11:21:25;101520.41;;;8.92;90.42
10806;BME280;5455;53.224;6.000;2023-04-25T11:23:56;101544.56;;;8.32;91.33
10806;BME280;5455;53.224;6.000;2023-04-25T11:26:24;101556.34;;;7.63;95.69
10806;BME280;5455;53.224;6.000;2023-04-25T11:28:51;101531.28;;;7.13;100.00
10806;BME280;5455;53.224;6.000;2023-04-25T11:31:21;101530.16;;;7.23;100.00
10806;BME280;5455;53.224;6.000;2023-04-25T11:33:49;101524.06;;;7.60;100.00
10806;BME280;5455;53.224;6.000;2023-04-25T11:36:16;101515.53;;;7.70;100.00
10806;BME280;5455;53.224;6.000;2023-04-25T11:38:43;101517.59;;;7.91;100.00
10806;BME280;5455;53.224;6.000;2023-04-25T11:41:10;101510.41;;;8.41;100.00
10806;BME280;5455;53.224;6.000;2023-04-25T11:43:38;101514.28;;;9.16;100.00
10806;BME280;5455;53.224;6.000;2023-04-25T11:46:08;101525.63;;;9.64;100.00
10806;BME280;5455;53.224;6.000;2023-04-25T11:48:42;101527.47;;;9.52;100.00
10806;BME280;5455;53.224;6.000;2023-04-25T11:51:09;101523.84;;;9.39;100.00
10806;BME280;5455;53.224;6.000;2023-04-25T11:53:41;101531.34;;;9.30;100.00
10806;BME280;5455;53.224;6.000;2023-04-25T11:56:11;101518.28;;;8.98;100.00
10806;BME280;5455;53.224;6.000;2023-04-25T11:59:01;101517.56;;;8.71;100.00
10806;BME280;5455;53.224;6.000;2023-04-25T12:01:30;101520.28;;;8.89;100.00
10806;BME280;5455;53.224;6.000;2023-04-25T12:04:19;101521.47;;;9.70;100.00
10806;BME280;5455;53.224;6.000;2023-04-25T12:06:49;101508.66;;;10.28;100.00
10806;BME280;5455;53.224;6.000;2023-04-25T12:09:21;101526.91;;;10.20;91.56
10806;BME280;5455;53.224;6.000;2023-04-25T12:11:55;101526.81;;;10.29;81.87
10806;BME280;5455;53.224;6.000;2023-04-25T12:14:28;101531.91;;;10.39;80.62
10806;BME280;5455;53.224;6.000;2023-04-25T12:16:57;101535.72;;;10.59;76.36
10806;BME280;5455;53.224;6.000;2023-04-25T12:19:25;101540.47;;;10.82;77.53
10806;BME280;5455;53.224;6.000;2023-04-25T12:21:53;101541.16;;;10.91;71.49
10806;BME280;5455;53.224;6.000;2023-04-25T12:24:26;101537.13;;;11.13;72.31
10806;BME280;5455;53.224;6.000;2023-04-25T12:27:05;101546.06;;;11.46;71.25
10806;BME280;5455;53.224;6.000;2023-04-25T12:29:33;101548.28;;;11.41;66.69
10806;BME280;5455;53.224;6.000;2023-04-25T12:32:15;101537.19;;;11.65;70.24
10806;BME280;5455;53.224;6.000;2023-04-25T12:34:43;101546.16;;;11.62;70.20
10806;BME280;5455;53.224;6.000;2023-04-25T12:37:10;101542.66;;;11.89;71.21
10806;BME280;5455;53.224;6.000;2023-04-25T12:39:38;101556.75;;;11.72;68.09
10806;BME280;5455;53.224;6.000;2023-04-25T12:42:05;101558.84;;;11.39;68.13
10806;BME280;5455;53.224;6.000;2023-04-25T12:44:35;101559.19;;;10.65;71.53
10806;BME280;5455;53.224;6.000;2023-04-25T12:47:03;101562.38;;;10.01;76.40
10806;BME280;5455;53.224;6.000;2023-04-25T12:49:31;101558.03;;;9.79;79.05
10806;BME280;5455;53.224;6.000;2023-04-25T12:51:58;101560.09;;;9.62;79.40
10806;BME280;5455;53.224;6.000;2023-04-25T12:54:25;101562.41;;;9.60;78.52
10806;BME280;5455;53.224;6.000;2023-04-25T12:56:52;101558.84;;;9.80;81.11
10806;BME280;5455;53.224;6.000;2023-04-25T12:59:20;101551.88;;;10.93;82.45
10806;BME280;5455;53.224;6.000;2023-04-25T13:01:47;101582.97;;;11.66;74.68
10806;BME280;5455;53.224;6.000;2023-04-25T13:04:15;101581.31;;;12.01;70.81
10806;BME280;5455;53.224;6.000;2023-04-25T13:06:43;101583.78;;;11.54;74.49
10806;BME280;5455;53.224;6.000;2023-04-25T13:09:10;101591.66;;;10.14;77.61
10806;BME280;5455;53.224;6.000;2023-04-25T13:11:39;101581.75;;;9.72;84.49
10806;BME280;5455;53.224;6.000;2023-04-25T13:14:07;101579.00;;;9.22;87.94
10806;BME280;5455;53.224;6.000;2023-04-25T13:16:34;101574.03;;;8.69;95.40
10806;BME280;5455;53.224;6.000;2023-04-25T13:19:01;101579.06;;;8.67;98.09
10806;BME280;5455;53.224;6.000;2023-04-25T13:21:30;101607.00;;;8.86;100.00
10806;BME280;5455;53.224;6.000;2023-04-25T13:23:58;101577.41;;;9.12;93.13
10806;BME280;5455;53.224;6.000;2023-04-25T13:26:26;101575.59;;;9.16;87.42
10806;BME280;5455;53.224;6.000;2023-04-25T13:28:53;101571.97;;;9.33;87.02